createdAt,value
2017-04-11T00:00:15.487Z,0
2017-04-11T00:01:24.387Z,0
2017-04-11T00:02:32.971Z,0
2017-04-11T00:03:41.569Z,0
2017-04-11T00:04:51.143Z,0
2017-04-11T00:06:00.368Z,0
2017-04-11T00:07:09.287Z,0
2017-04-11T00:08:18.505Z,0
2017-04-11T00:09:27.726Z,0
2017-04-11T00:10:36.949Z,0
2017-04-11T00:11:46.168Z,0
2017-04-11T00:12:55.391Z,0
2017-04-11T00:14:04.606Z,0
2017-04-11T00:15:13.831Z,0
2017-04-11T00:16:22.739Z,0
2017-04-11T00:17:31.963Z,0
2017-04-11T00:18:41.184Z,0
2017-04-11T00:19:49.770Z,0
2017-04-11T00:20:58.661Z,0
2017-04-11T00:22:07.886Z,0
2017-04-11T00:23:16.785Z,0
2017-04-11T00:24:26.336Z,0
2017-04-11T00:25:35.871Z,0
2017-04-11T00:26:45.405Z,0
2017-04-11T00:27:54.943Z,0
2017-04-11T00:29:04.170Z,0
2017-04-11T00:30:13.397Z,0
2017-04-11T00:31:22.301Z,0
2017-04-11T00:32:31.201Z,0
2017-04-11T00:33:40.738Z,0
2017-04-11T00:34:49.316Z,0
2017-04-11T00:35:58.215Z,0
2017-04-11T00:37:07.442Z,0
2017-04-11T00:38:16.656Z,0
2017-04-11T00:39:25.880Z,0
2017-04-11T00:40:34.783Z,0
2017-04-11T00:41:44.012Z,0
2017-04-11T00:42:52.917Z,0
2017-04-11T00:44:02.450Z,0
2017-04-11T00:45:11.672Z,0
2017-04-11T00:46:20.577Z,0
2017-04-11T00:47:29.164Z,0
2017-04-11T00:48:38.702Z,0
2017-04-11T00:49:48.236Z,0
2017-04-11T00:50:57.777Z,0
2017-04-11T00:52:06.360Z,0
2017-04-11T00:53:15.571Z,0
2017-04-11T00:54:24.788Z,0
2017-04-11T00:55:33.373Z,0
2017-04-11T00:56:42.590Z,0
2017-04-11T00:57:51.494Z,0
2017-04-11T00:59:00.404Z,0
2017-04-11T01:00:09.305Z,0
2017-04-11T01:01:18.209Z,0
2017-04-11T01:02:27.115Z,0
2017-04-11T01:03:36.023Z,0
2017-04-11T01:04:44.613Z,0
2017-04-11T01:05:53.827Z,0
2017-04-11T01:07:03.044Z,0
2017-04-11T01:08:12.259Z,0
2017-04-11T01:09:21.163Z,0
2017-04-11T01:10:30.070Z,0
2017-04-11T01:11:39.289Z,0
2017-04-11T01:12:48.517Z,0
2017-04-11T01:13:57.742Z,0
2017-04-11T01:15:06.647Z,0
2017-04-11T01:16:15.266Z,0
2017-04-11T01:17:23.855Z,0
2017-04-11T01:18:32.441Z,0
2017-04-11T01:19:41.341Z,0
2017-04-11T01:20:50.567Z,0
2017-04-11T01:21:59.152Z,0
2017-04-11T01:23:08.704Z,0
2017-04-11T01:24:17.302Z,0
2017-04-11T01:25:26.846Z,0
2017-04-11T01:26:36.387Z,0
2017-04-11T01:27:45.618Z,0
2017-04-11T01:28:54.524Z,0
2017-04-11T01:30:04.063Z,0
2017-04-11T01:31:13.283Z,0
2017-04-11T01:32:23.129Z,0
2017-04-11T01:33:32.037Z,0
2017-04-11T01:34:40.945Z,0
2017-04-11T01:35:49.852Z,0
2017-04-11T01:36:58.751Z,0
2017-04-11T01:38:07.969Z,0
2017-04-11T01:39:16.877Z,0
2017-04-11T01:40:26.105Z,0
2017-04-11T01:41:35.000Z,0
2017-04-11T01:42:43.907Z,0
2017-04-11T01:43:53.368Z,0
2017-04-11T01:45:01.946Z,0
2017-04-11T01:46:11.140Z,0
2017-04-11T01:47:20.042Z,0
2017-04-11T01:48:28.629Z,0
2017-04-11T01:49:37.849Z,0
2017-04-11T01:50:47.391Z,0
2017-04-11T01:51:56.293Z,0
2017-04-11T01:53:05.200Z,0
2017-04-11T01:54:14.105Z,0
2017-04-11T01:55:23.320Z,0
2017-04-11T01:56:32.238Z,0
2017-04-11T01:57:41.621Z,0
2017-04-11T01:58:50.537Z,0
2017-04-11T01:59:59.445Z,0
2017-04-11T02:01:08.349Z,0
2017-04-11T02:02:17.576Z,0
2017-04-11T02:03:26.802Z,0
2017-04-11T02:04:36.019Z,0
2017-04-11T02:05:44.921Z,0
2017-04-11T02:06:53.823Z,0
2017-04-11T02:08:03.044Z,0
2017-04-11T02:09:11.949Z,0
2017-04-11T02:10:21.229Z,0
2017-04-11T02:11:30.761Z,0
2017-04-11T02:12:39.662Z,0
2017-04-11T02:13:48.887Z,0
2017-04-11T02:14:58.105Z,0
2017-04-11T02:16:07.336Z,0
2017-04-11T02:17:16.561Z,0
2017-04-11T02:18:26.415Z,0
2017-04-11T02:19:35.310Z,0
2017-04-11T02:20:43.885Z,0
2017-04-11T02:21:53.108Z,0
2017-04-11T02:23:01.702Z,0
2017-04-11T02:24:10.604Z,0
2017-04-11T02:25:19.191Z,0
2017-04-11T02:26:28.408Z,0
2017-04-11T02:27:37.312Z,0
2017-04-11T02:28:46.210Z,0
2017-04-11T02:29:55.422Z,0
2017-04-11T02:31:04.012Z,0
2017-04-11T02:32:12.605Z,0
2017-04-11T02:33:22.145Z,0
2017-04-11T02:34:31.052Z,0
2017-04-11T02:35:40.270Z,0
2017-04-11T02:36:50.129Z,0
2017-04-11T02:37:59.668Z,0
2017-04-11T02:39:08.893Z,0
2017-04-11T02:40:18.431Z,0
2017-04-11T02:41:27.647Z,0
2017-04-11T02:42:37.186Z,0
2017-04-11T02:43:46.085Z,0
2017-04-11T02:44:55.309Z,0
2017-04-11T02:46:04.841Z,0
2017-04-11T02:47:14.378Z,0
2017-04-11T02:48:23.284Z,0
2017-04-11T02:49:32.503Z,0
2017-04-11T02:50:41.713Z,0
2017-04-11T02:51:50.616Z,0
2017-04-11T02:53:00.153Z,0
2017-04-11T02:54:09.422Z,0
2017-04-11T02:55:18.321Z,0
2017-04-11T02:56:27.537Z,0
2017-04-11T02:57:36.110Z,0
2017-04-11T02:58:45.648Z,0
2017-04-11T02:59:54.544Z,0
2017-04-11T03:01:03.457Z,0
2017-04-11T03:02:13.314Z,0
2017-04-11T03:03:22.531Z,0
2017-04-11T03:04:32.380Z,0
2017-04-11T03:05:41.275Z,0
2017-04-11T03:06:50.502Z,0
2017-04-11T03:07:59.724Z,0
2017-04-11T03:09:08.626Z,0
2017-04-11T03:10:18.160Z,0
2017-04-11T03:11:27.064Z,0
2017-04-11T03:12:36.283Z,0
2017-04-11T03:13:45.505Z,0
2017-04-11T03:14:55.051Z,0
2017-04-11T03:16:04.267Z,0
2017-04-11T03:17:13.799Z,0
2017-04-11T03:18:22.701Z,0
2017-04-11T03:19:31.921Z,0
2017-04-11T03:20:41.147Z,0
2017-04-11T03:21:50.050Z,0
2017-04-11T03:22:59.305Z,0
2017-04-11T03:24:08.543Z,0
2017-04-11T03:25:18.400Z,0
2017-04-11T03:26:27.340Z,0
2017-04-11T03:27:36.881Z,0
2017-04-11T03:28:46.102Z,0
2017-04-11T03:29:55.629Z,0
2017-04-11T03:31:04.846Z,0
2017-04-11T03:32:13.756Z,0
2017-04-11T03:33:22.978Z,0
2017-04-11T03:34:31.884Z,0
2017-04-11T03:35:41.105Z,0
2017-04-11T03:36:50.003Z,0
2017-04-11T03:37:59.224Z,0
2017-04-11T03:39:08.764Z,0
2017-04-11T03:40:17.984Z,0
2017-04-11T03:41:26.889Z,0
2017-04-11T03:42:36.432Z,0
2017-04-11T03:43:45.653Z,0
2017-04-11T03:44:54.251Z,0
2017-04-11T03:46:03.151Z,0
2017-04-11T03:47:12.369Z,0
2017-04-11T03:48:21.585Z,0
2017-04-11T03:49:30.496Z,0
2017-04-11T03:50:39.460Z,0
2017-04-11T03:51:48.363Z,0
2017-04-11T03:52:56.948Z,0
2017-04-11T03:54:05.528Z,0
2017-04-11T03:55:14.423Z,0
2017-04-11T03:56:23.314Z,0
2017-04-11T03:57:32.785Z,0
2017-04-11T03:58:42.004Z,0
2017-04-11T03:59:50.590Z,0
2017-04-11T04:01:00.153Z,0
2017-04-11T04:02:08.749Z,0
2017-04-11T04:03:18.282Z,0
2017-04-11T04:04:27.508Z,0
2017-04-11T04:05:36.723Z,0
2017-04-11T04:06:45.937Z,0
2017-04-11T04:07:54.523Z,0
2017-04-11T04:09:04.402Z,0
2017-04-11T04:10:13.305Z,4
2017-04-11T04:11:22.513Z,4
2017-04-11T04:12:31.095Z,4
2017-04-11T04:13:40.635Z,0
2017-04-11T04:14:49.857Z,4
2017-04-11T04:15:59.443Z,4
2017-04-11T04:17:08.346Z,4
2017-04-11T04:18:17.578Z,8
2017-04-11T04:19:26.800Z,8
2017-04-11T04:20:35.389Z,8
2017-04-11T04:21:44.286Z,12
2017-04-11T04:22:53.821Z,12
2017-04-11T04:24:02.731Z,12
2017-04-11T04:25:11.644Z,12
2017-04-11T04:26:20.546Z,16
2017-04-11T04:27:29.759Z,16
2017-04-11T04:28:39.294Z,20
2017-04-11T04:29:48.981Z,24
2017-04-11T04:30:57.563Z,72
2017-04-11T04:32:06.788Z,96
2017-04-11T04:33:16.006Z,112
2017-04-11T04:34:25.555Z,128
2017-04-11T04:35:35.095Z,132
2017-04-11T04:36:43.674Z,144
2017-04-11T04:37:52.570Z,148
2017-04-11T04:39:01.473Z,156
2017-04-11T04:40:11.005Z,164
2017-04-11T04:41:20.540Z,172
2017-04-11T04:42:29.439Z,176
2017-04-11T04:43:38.667Z,188
2017-04-11T04:44:47.886Z,196
2017-04-11T04:45:56.781Z,208
2017-04-11T04:47:05.369Z,216
2017-04-11T04:48:13.953Z,228
2017-04-11T04:49:23.100Z,236
2017-04-11T04:50:32.000Z,248
2017-04-11T04:51:41.217Z,260
2017-04-11T04:52:49.809Z,268
2017-04-11T04:53:59.027Z,280
2017-04-11T04:55:08.254Z,288
2017-04-11T04:56:17.791Z,292
2017-04-11T04:57:26.683Z,296
2017-04-11T04:58:35.904Z,304
2017-04-11T04:59:44.801Z,316
2017-04-11T05:00:54.026Z,316
2017-04-11T05:02:03.248Z,332
2017-04-11T05:03:11.828Z,348
2017-04-11T05:04:21.515Z,372
2017-04-11T05:05:31.047Z,388
2017-04-11T05:06:39.627Z,412
2017-04-11T05:07:48.842Z,440
2017-04-11T05:08:57.752Z,492
2017-04-11T05:10:07.295Z,544
2017-04-11T05:11:16.198Z,580
2017-04-11T05:12:25.422Z,612
2017-04-11T05:13:34.329Z,644
2017-04-11T05:14:43.559Z,680
2017-04-11T05:15:52.470Z,692
2017-04-11T05:17:02.320Z,700
2017-04-11T05:18:11.218Z,712
2017-04-11T05:19:20.432Z,696
2017-04-11T05:20:30.217Z,724
2017-04-11T05:21:39.125Z,752
2017-04-11T05:22:48.665Z,772
2017-04-11T05:23:57.560Z,796
2017-04-11T05:25:06.782Z,832
2017-04-11T05:26:15.685Z,852
2017-04-11T05:27:24.591Z,900
2017-04-11T05:28:33.815Z,908
2017-04-11T05:29:43.031Z,916
2017-04-11T05:30:52.503Z,936
2017-04-11T05:32:01.089Z,916
2017-04-11T05:33:10.304Z,972
2017-04-11T05:34:19.838Z,1008
2017-04-11T05:35:28.751Z,1028
2017-04-11T05:36:37.974Z,1052
2017-04-11T05:37:47.504Z,1068
2017-04-11T05:38:56.085Z,1072
2017-04-11T05:40:04.673Z,1080
2017-04-11T05:41:13.255Z,1112
2017-04-11T05:42:22.158Z,1132
2017-04-11T05:43:31.379Z,1188
2017-04-11T05:44:40.323Z,1252
2017-04-11T05:45:48.902Z,1300
2017-04-11T05:46:57.802Z,1392
2017-04-11T05:48:07.389Z,1516
2017-04-11T05:49:16.922Z,1620
2017-04-11T05:50:25.829Z,1676
2017-04-11T05:51:35.692Z,1744
2017-04-11T05:52:44.936Z,1796
2017-04-11T05:53:53.526Z,1800
2017-04-11T05:55:02.468Z,1768
2017-04-11T05:56:12.002Z,1700
2017-04-11T05:57:20.916Z,1604
2017-04-11T05:58:29.841Z,1552
2017-04-11T05:59:39.230Z,1464
2017-04-11T06:00:48.130Z,1492
2017-04-11T06:01:57.551Z,1460
2017-04-11T06:03:06.149Z,1452
2017-04-11T06:04:15.061Z,1456
2017-04-11T06:05:24.284Z,1592
2017-04-11T06:06:33.813Z,1596
2017-04-11T06:07:43.344Z,1564
2017-04-11T06:08:52.249Z,1532
2017-04-11T06:10:01.462Z,1556
2017-04-11T06:11:10.360Z,1648
2017-04-11T06:12:19.573Z,1728
2017-04-11T06:13:28.792Z,1772
2017-04-11T06:14:37.373Z,1864
2017-04-11T06:15:45.956Z,1932
2017-04-11T06:16:55.496Z,1920
2017-04-11T06:18:04.725Z,1900
2017-04-11T06:19:13.312Z,1868
2017-04-11T06:20:22.209Z,1820
2017-04-11T06:21:31.442Z,1800
2017-04-11T06:22:40.978Z,1720
2017-04-11T06:23:50.511Z,1692
2017-04-11T06:24:59.737Z,1768
2017-04-11T06:26:08.645Z,1800
2017-04-11T06:27:17.219Z,1660
2017-04-11T06:28:26.444Z,1844
2017-04-11T06:29:35.659Z,1884
2017-04-11T06:30:44.561Z,1920
2017-04-11T06:31:53.779Z,1916
2017-04-11T06:33:03.001Z,1952
2017-04-11T06:34:12.864Z,2008
2017-04-11T06:35:21.763Z,2060
2017-04-11T06:36:30.659Z,2072
2017-04-11T06:37:39.886Z,2080
2017-04-11T06:38:48.785Z,2100
2017-04-11T06:39:57.725Z,2152
2017-04-11T06:41:06.676Z,2148
2017-04-11T06:42:15.291Z,2116
2017-04-11T06:43:24.268Z,2120
2017-04-11T06:44:33.170Z,2140
2017-04-11T06:45:42.704Z,2152
2017-04-11T06:46:51.608Z,2180
2017-04-11T06:48:00.519Z,2180
2017-04-11T06:49:09.743Z,2212
2017-04-11T06:50:18.328Z,2288
2017-04-11T06:51:27.245Z,2400
2017-04-11T06:52:36.471Z,2488
2017-04-11T06:53:45.697Z,2604
2017-04-11T06:54:55.239Z,2724
2017-04-11T06:56:04.529Z,2744
2017-04-11T06:57:13.754Z,2848
2017-04-11T06:58:22.329Z,2976
2017-04-11T06:59:31.229Z,3060
2017-04-11T07:00:40.142Z,3164
2017-04-11T07:01:49.048Z,3276
2017-04-11T07:02:57.953Z,3508
2017-04-11T07:04:07.518Z,3564
2017-04-11T07:05:16.885Z,3612
2017-04-11T07:06:26.468Z,3748
2017-04-11T07:07:35.708Z,3816
2017-04-11T07:08:45.259Z,3852
2017-04-11T07:09:54.481Z,3852
2017-04-11T07:11:03.392Z,3948
2017-04-11T07:12:11.977Z,4048
2017-04-11T07:13:20.884Z,4056
2017-04-11T07:14:29.473Z,4056
2017-04-11T07:15:38.382Z,4204
2017-04-11T07:16:47.608Z,4400
2017-04-11T07:17:56.833Z,4308
2017-04-11T07:19:05.429Z,4304
2017-04-11T07:20:14.331Z,4432
2017-04-11T07:21:22.923Z,4532
2017-04-11T07:22:32.470Z,4556
2017-04-11T07:23:41.788Z,4544
2017-04-11T07:24:51.650Z,4548
2017-04-11T07:26:00.943Z,4580
2017-04-11T07:27:10.227Z,4656
2017-04-11T07:28:19.209Z,4880
2017-04-11T07:29:28.451Z,5112
2017-04-11T07:30:37.692Z,5208
2017-04-11T07:31:46.914Z,5252
2017-04-11T07:32:56.141Z,5316
2017-04-11T07:34:05.195Z,5316
2017-04-11T07:35:14.374Z,5304
2017-04-11T07:36:23.605Z,5548
2017-04-11T07:37:33.054Z,5812
2017-04-11T07:38:42.515Z,6088
2017-04-11T07:39:51.733Z,6236
2017-04-11T07:41:00.638Z,6284
2017-04-11T07:42:09.546Z,6220
2017-04-11T07:43:18.133Z,6220
2017-04-11T07:44:27.074Z,6148
2017-04-11T07:45:36.298Z,6096
2017-04-11T07:46:45.013Z,6152
2017-04-11T07:47:54.558Z,6280
2017-04-11T07:49:03.471Z,6444
2017-04-11T07:50:13.014Z,6712
2017-04-11T07:51:23.001Z,6976
2017-04-11T07:52:32.285Z,6660
2017-04-11T07:53:41.190Z,6320
2017-04-11T07:54:49.814Z,6008
2017-04-11T07:55:59.054Z,5980
2017-04-11T07:57:07.968Z,6244
2017-04-11T07:58:17.228Z,6564
2017-04-11T07:59:27.186Z,6956
2017-04-11T08:00:36.105Z,7496
2017-04-11T08:01:45.008Z,7860
2017-04-11T08:02:54.165Z,8348
2017-04-11T08:04:03.457Z,8592
2017-04-11T08:05:12.372Z,8564
2017-04-11T08:06:21.299Z,9204
2017-04-11T08:07:29.984Z,9968
2017-04-11T08:08:39.210Z,10508
2017-04-11T08:09:48.130Z,10820
2017-04-11T08:10:57.440Z,10828
2017-04-11T08:12:06.671Z,10696
2017-04-11T08:13:15.936Z,10820
2017-04-11T08:14:24.848Z,11064
2017-04-11T08:15:34.172Z,10716
2017-04-11T08:16:43.184Z,10284
2017-04-11T08:17:51.779Z,10392
2017-04-11T08:19:00.683Z,10304
2017-04-11T08:20:09.276Z,9668
2017-04-11T08:21:20.401Z,9356
2017-04-11T08:22:29.711Z,9856
2017-04-11T08:23:38.934Z,10000
2017-04-11T08:24:47.835Z,10540
2017-04-11T08:25:57.068Z,11380
2017-04-11T08:27:06.297Z,11880
2017-04-11T08:28:15.205Z,11528
2017-04-11T08:29:24.440Z,11448
2017-04-11T08:30:33.660Z,12040
2017-04-11T08:31:42.893Z,12368
2017-04-11T08:32:52.243Z,12356
2017-04-11T08:34:01.478Z,12040
2017-04-11T08:35:10.696Z,11756
2017-04-11T08:36:19.956Z,11748
2017-04-11T08:37:28.881Z,11904
2017-04-11T08:38:38.459Z,11796
2017-04-11T08:39:48.085Z,11864
2017-04-11T08:40:58.087Z,11560
2017-04-11T08:42:07.314Z,11412
2017-04-11T08:43:16.233Z,11592
2017-04-11T08:44:25.770Z,11792
2017-04-11T08:45:34.997Z,11876
2017-04-11T08:46:44.222Z,11404
2017-04-11T08:47:53.384Z,11024
2017-04-11T08:49:02.617Z,10492
2017-04-11T08:50:12.428Z,10972
2017-04-11T08:51:22.290Z,11344
2017-04-11T08:52:33.260Z,11200
2017-04-11T08:53:42.988Z,10628
2017-04-11T08:54:51.581Z,9400
2017-04-11T08:56:00.493Z,9228
2017-04-11T08:57:09.405Z,9568
2017-04-11T08:58:18.896Z,9420
2017-04-11T08:59:28.453Z,9264
2017-04-11T09:00:37.394Z,8628
2017-04-11T09:01:46.639Z,8292
2017-04-11T09:02:55.880Z,7576
2017-04-11T09:04:05.112Z,7276
2017-04-11T09:05:13.712Z,7196
2017-04-11T09:06:23.272Z,7216
2017-04-11T09:07:32.193Z,7972
2017-04-11T09:08:41.676Z,8336
2017-04-11T09:09:50.705Z,8036
2017-04-11T09:11:00.250Z,8040
2017-04-11T09:12:09.470Z,9204
2017-04-11T09:13:18.691Z,8820
2017-04-11T09:14:27.750Z,9276
2017-04-11T09:15:36.978Z,10076
2017-04-11T09:16:46.526Z,10096
2017-04-11T09:17:56.086Z,10028
2017-04-11T09:19:04.996Z,9264
2017-04-11T09:20:13.906Z,8324
2017-04-11T09:21:22.500Z,7588
2017-04-11T09:22:31.992Z,7544
2017-04-11T09:23:41.538Z,7668
2017-04-11T09:24:50.449Z,7968
2017-04-11T09:25:59.678Z,9132
2017-04-11T09:27:08.898Z,8324
2017-04-11T09:28:18.140Z,7416
2017-04-11T09:29:27.050Z,6500
2017-04-11T09:30:35.640Z,5464
2017-04-11T09:31:44.556Z,5596
2017-04-11T09:32:53.470Z,5944
2017-04-11T09:34:02.384Z,5684
2017-04-11T09:35:11.301Z,5520
2017-04-11T09:36:22.974Z,5208
2017-04-11T09:37:31.891Z,5124
2017-04-11T09:38:40.796Z,5076
2017-04-11T09:39:49.715Z,5872
2017-04-11T09:40:58.624Z,6116
2017-04-11T09:42:07.538Z,6232
2017-04-11T09:43:17.096Z,6372
2017-04-11T09:44:26.650Z,6780
2017-04-11T09:45:35.886Z,7564
2017-04-11T09:46:45.109Z,8056
2017-04-11T09:47:54.023Z,9028
2017-04-11T09:49:02.608Z,9020
2017-04-11T09:50:11.633Z,10052
2017-04-11T09:51:20.548Z,8260
2017-04-11T09:52:30.423Z,8216
2017-04-11T09:53:39.665Z,8192
2017-04-11T09:54:48.892Z,7480
2017-04-11T09:55:57.484Z,6480
2017-04-11T09:57:06.402Z,5784
2017-04-11T09:58:15.626Z,5840
2017-04-11T09:59:24.533Z,6092
2017-04-11T10:00:33.121Z,5860
2017-04-11T10:01:42.028Z,5476
2017-04-11T10:02:50.938Z,5492
2017-04-11T10:03:59.860Z,4940
2017-04-11T10:05:08.455Z,4544
2017-04-11T10:06:18.007Z,4796
2017-04-11T10:07:26.921Z,5240
2017-04-11T10:08:35.521Z,5428
2017-04-11T10:09:44.431Z,5828
2017-04-11T10:10:53.662Z,6600
2017-04-11T10:12:02.577Z,7560
2017-04-11T10:13:12.132Z,8360
2017-04-11T10:14:21.371Z,8440
2017-04-11T10:15:30.292Z,7872
2017-04-11T10:16:39.201Z,8392
2017-04-11T10:17:48.742Z,9316
2017-04-11T10:18:57.980Z,9156
2017-04-11T10:20:06.884Z,10280
2017-04-11T10:21:16.428Z,12276
2017-04-11T10:22:25.657Z,14352
2017-04-11T10:23:34.257Z,14184
2017-04-11T10:24:43.515Z,13448
2017-04-11T10:25:52.756Z,13532
2017-04-11T10:27:01.377Z,13492
2017-04-11T10:28:10.289Z,13124
2017-04-11T10:29:19.521Z,12564
2017-04-11T10:30:28.762Z,11280
2017-04-11T10:31:37.719Z,10504
2017-04-11T10:32:46.961Z,9744
2017-04-11T10:33:55.887Z,9684
2017-04-11T10:35:05.118Z,11304
2017-04-11T10:36:14.351Z,14348
2017-04-11T10:37:23.258Z,15488
2017-04-11T10:38:32.483Z,14440
2017-04-11T10:39:41.190Z,13624
2017-04-11T10:40:50.107Z,14368
2017-04-11T10:41:59.026Z,14644
2017-04-11T10:43:08.605Z,13624
2017-04-11T10:44:17.830Z,10488
2017-04-11T10:45:27.072Z,9268
2017-04-11T10:46:36.278Z,8520
2017-04-11T10:47:44.995Z,8040
2017-04-11T10:48:54.243Z,7944
2017-04-11T10:50:03.490Z,7976
2017-04-11T10:51:12.751Z,7004
2017-04-11T10:52:21.369Z,6520
2017-04-11T10:53:29.969Z,5616
2017-04-11T10:54:38.722Z,5464
2017-04-11T10:55:48.481Z,6248
2017-04-11T10:56:57.809Z,5632
2017-04-11T10:58:06.545Z,5452
2017-04-11T10:59:15.134Z,5240
2017-04-11T11:00:24.686Z,4836
2017-04-11T11:01:33.955Z,5184
2017-04-11T11:02:43.196Z,5620
2017-04-11T11:03:53.079Z,5724
2017-04-11T11:05:02.310Z,5488
2017-04-11T11:06:12.006Z,5436
2017-04-11T11:07:21.059Z,5332
2017-04-11T11:08:29.974Z,5368
2017-04-11T11:09:38.572Z,5364
2017-04-11T11:10:47.823Z,5392
2017-04-11T11:11:57.380Z,5556
2017-04-11T11:13:06.624Z,5628
2017-04-11T11:14:15.969Z,5680
2017-04-11T11:15:24.565Z,5808
2017-04-11T11:16:34.112Z,5848
2017-04-11T11:17:42.859Z,5920
2017-04-11T11:18:52.422Z,6076
2017-04-11T11:20:01.343Z,6060
2017-04-11T11:21:10.308Z,6192
2017-04-11T11:22:19.923Z,6336
2017-04-11T11:23:28.838Z,6332
2017-04-11T11:24:37.897Z,6740
2017-04-11T11:25:47.175Z,7028
2017-04-11T11:26:55.795Z,7396
2017-04-11T11:28:04.709Z,8140
2017-04-11T11:29:14.390Z,9524
2017-04-11T11:30:23.340Z,10716
2017-04-11T11:31:32.314Z,11240
2017-04-11T11:32:42.348Z,8908
2017-04-11T11:33:51.633Z,8804
2017-04-11T11:35:01.631Z,8976
2017-04-11T11:36:10.569Z,10312
2017-04-11T11:37:19.172Z,10040
2017-04-11T11:38:27.760Z,9676
2017-04-11T11:39:36.993Z,10448
2017-04-11T11:40:46.536Z,10712
2017-04-11T11:41:55.783Z,11648
2017-04-11T11:43:04.453Z,11748
2017-04-11T11:44:13.678Z,12936
2017-04-11T11:45:22.617Z,11352
2017-04-11T11:46:31.860Z,11296
2017-04-11T11:47:41.181Z,10628
2017-04-11T11:48:49.782Z,10576
2017-04-11T11:49:59.126Z,11272
2017-04-11T11:51:08.065Z,11876
2017-04-11T11:52:17.297Z,11332
2017-04-11T11:53:26.216Z,11168
2017-04-11T11:54:35.444Z,12536
2017-04-11T11:55:44.353Z,12652
2017-04-11T11:56:53.640Z,12084
2017-04-11T11:58:02.572Z,12252
2017-04-11T11:59:11.486Z,12020
2017-04-11T12:00:21.041Z,11368
2017-04-11T12:01:30.052Z,10960
2017-04-11T12:02:39.358Z,11156
2017-04-11T12:03:48.926Z,12856
2017-04-11T12:04:57.831Z,13744
2017-04-11T12:06:07.066Z,13064
2017-04-11T12:07:16.765Z,11556
2017-04-11T12:08:26.319Z,11896
2017-04-11T12:09:34.916Z,13008
2017-04-11T12:10:43.826Z,12100
2017-04-11T12:11:52.426Z,12188
2017-04-11T12:13:01.336Z,11920
2017-04-11T12:14:10.285Z,11148
2017-04-11T12:15:19.276Z,10220
2017-04-11T12:16:28.825Z,9508
2017-04-11T12:17:38.380Z,8704
2017-04-11T12:18:47.291Z,7980
2017-04-11T12:19:56.524Z,7596
2017-04-11T12:21:05.429Z,7964
2017-04-11T12:22:14.338Z,8960
2017-04-11T12:23:23.283Z,9536
2017-04-11T12:24:32.830Z,9680
2017-04-11T12:25:41.743Z,10228
2017-04-11T12:26:50.982Z,10812
2017-04-11T12:28:00.216Z,12564
2017-04-11T12:29:09.760Z,13116
2017-04-11T12:30:18.987Z,11792
2017-04-11T12:31:28.231Z,10480
2017-04-11T12:32:37.794Z,9500
2017-04-11T12:33:47.361Z,8716
2017-04-11T12:34:56.316Z,7936
2017-04-11T12:36:05.936Z,7924
2017-04-11T12:37:15.181Z,7752
2017-04-11T12:38:23.777Z,7612
2017-04-11T12:39:32.737Z,7244
2017-04-11T12:40:42.299Z,6720
2017-04-11T12:41:51.257Z,6144
2017-04-11T12:43:00.482Z,5908
2017-04-11T12:44:09.714Z,6480
2017-04-11T12:45:18.390Z,7056
2017-04-11T12:46:27.622Z,7740
2017-04-11T12:47:36.731Z,8708
2017-04-11T12:48:45.971Z,9064
2017-04-11T12:49:55.358Z,8544
2017-04-11T12:51:04.650Z,8136
2017-04-11T12:52:13.249Z,7776
2017-04-11T12:53:22.801Z,7292
2017-04-11T12:54:31.416Z,7104
2017-04-11T12:55:40.647Z,7144
2017-04-11T12:56:49.878Z,7216
2017-04-11T12:57:58.790Z,7516
2017-04-11T12:59:07.708Z,7956
2017-04-11T13:00:17.595Z,7984
2017-04-11T13:01:26.823Z,7200
2017-04-11T13:02:36.516Z,6544
2017-04-11T13:03:47.600Z,5948
2017-04-11T13:04:57.258Z,5416
2017-04-11T13:06:06.172Z,5008
2017-04-11T13:07:15.089Z,4484
2017-04-11T13:08:24.606Z,3876
2017-04-11T13:09:33.831Z,3604
2017-04-11T13:10:43.295Z,3472
2017-04-11T13:11:52.894Z,3492
2017-04-11T13:13:01.848Z,3496
2017-04-11T13:14:10.768Z,3260
2017-04-11T13:15:20.319Z,3056
2017-04-11T13:16:29.680Z,2948
2017-04-11T13:17:38.712Z,2824
2017-04-11T13:18:47.970Z,2628
2017-04-11T13:19:56.945Z,2416
2017-04-11T13:21:06.172Z,2432
2017-04-11T13:22:15.724Z,2680
2017-04-11T13:23:24.951Z,3052
2017-04-11T13:24:34.569Z,3564
2017-04-11T13:25:43.485Z,4816
2017-04-11T13:26:52.714Z,6492
2017-04-11T13:28:01.325Z,7636
2017-04-11T13:29:10.886Z,8116
2017-04-11T13:30:20.464Z,8208
2017-04-11T13:31:29.391Z,7772
2017-04-11T13:32:38.632Z,7160
2017-04-11T13:33:47.567Z,6016
2017-04-11T13:34:56.577Z,5028
2017-04-11T13:36:05.497Z,4456
2017-04-11T13:37:14.720Z,4136
2017-04-11T13:38:23.325Z,3924
2017-04-11T13:39:32.560Z,3820
2017-04-11T13:40:41.863Z,3924
2017-04-11T13:41:51.414Z,4032
2017-04-11T13:43:00.652Z,4068
2017-04-11T13:44:09.890Z,4052
2017-04-11T13:45:18.482Z,4156
2017-04-11T13:46:27.400Z,4268
2017-04-11T13:47:36.685Z,4136
2017-04-11T13:48:45.964Z,3892
2017-04-11T13:49:54.897Z,3932
2017-04-11T13:51:04.571Z,4124
2017-04-11T13:52:13.582Z,4296
2017-04-11T13:53:22.171Z,4440
2017-04-11T13:54:31.405Z,4684
2017-04-11T13:55:40.311Z,5024
2017-04-11T13:56:49.221Z,5428
2017-04-11T13:57:59.143Z,6128
2017-04-11T13:59:08.590Z,7048
2017-04-11T14:00:17.731Z,7532
2017-04-11T14:01:27.692Z,8104
2017-04-11T14:02:36.677Z,8484
2017-04-11T14:03:46.469Z,8696
2017-04-11T14:04:56.155Z,9140
2017-04-11T14:06:05.427Z,8988
2017-04-11T14:07:14.984Z,8144
2017-04-11T14:08:24.921Z,7728
2017-04-11T14:09:34.544Z,7500
2017-04-11T14:10:43.872Z,7036
2017-04-11T14:11:53.423Z,6832
2017-04-11T14:13:02.369Z,6896
2017-04-11T14:14:11.758Z,7228
2017-04-11T14:15:21.439Z,7080
2017-04-11T14:16:30.350Z,6384
2017-04-11T14:17:39.893Z,5352
2017-04-11T14:18:48.810Z,4940
2017-04-11T14:19:58.044Z,4392
2017-04-11T14:21:06.956Z,3780
2017-04-11T14:22:15.546Z,3432
2017-04-11T14:23:24.457Z,3232
2017-04-11T14:24:33.694Z,2836
2017-04-11T14:25:42.688Z,2628
2017-04-11T14:26:52.018Z,2596
2017-04-11T14:28:01.344Z,2600
2017-04-11T14:29:10.418Z,2584
2017-04-11T14:30:19.022Z,2692
2017-04-11T14:31:28.570Z,3060
2017-04-11T14:32:37.789Z,3476
2017-04-11T14:33:47.795Z,3144
2017-04-11T14:34:56.708Z,2552
2017-04-11T14:36:05.634Z,2152
2017-04-11T14:37:15.380Z,1924
2017-04-11T14:38:25.533Z,1836
2017-04-11T14:39:35.281Z,1776
2017-04-11T14:40:44.505Z,1712
2017-04-11T14:41:53.416Z,1696
2017-04-11T14:43:02.333Z,1728
2017-04-11T14:44:11.248Z,1764
2017-04-11T14:45:20.793Z,1792
2017-04-11T14:46:29.709Z,1852
2017-04-11T14:47:38.994Z,1968
2017-04-11T14:48:48.246Z,2108
2017-04-11T14:49:57.417Z,2372
2017-04-11T14:51:06.335Z,2624
2017-04-11T14:52:15.250Z,2844
2017-04-11T14:53:24.796Z,3268
2017-04-11T14:54:34.705Z,4252
2017-04-11T14:55:43.659Z,5116
2017-04-11T14:56:52.259Z,6068
2017-04-11T14:58:01.173Z,7100
2017-04-11T14:59:10.404Z,8500
2017-04-11T15:00:19.327Z,9688
2017-04-11T15:01:28.243Z,10056
2017-04-11T15:02:37.790Z,9392
2017-04-11T15:03:46.400Z,7944
2017-04-11T15:04:55.633Z,6212
2017-04-11T15:06:04.549Z,5176
2017-04-11T15:07:13.851Z,4828
2017-04-11T15:08:23.088Z,4972
2017-04-11T15:09:33.461Z,5276
2017-04-11T15:10:42.705Z,5952
2017-04-11T15:11:51.624Z,6512
2017-04-11T15:13:00.302Z,7240
2017-04-11T15:14:10.059Z,6716
2017-04-11T15:15:19.147Z,5444
2017-04-11T15:16:28.969Z,5256
2017-04-11T15:17:38.194Z,5588
2017-04-11T15:18:50.199Z,5932
2017-04-11T15:19:59.631Z,5816
2017-04-11T15:21:08.552Z,6244
2017-04-11T15:22:18.103Z,5924
2017-04-11T15:23:27.375Z,5416
2017-04-11T15:24:36.917Z,5104
2017-04-11T15:25:45.827Z,5324
2017-04-11T15:26:55.734Z,4924
2017-04-11T15:28:04.650Z,4908
2017-04-11T15:29:13.554Z,4704
2017-04-11T15:30:22.780Z,4920
2017-04-11T15:31:32.340Z,5100
2017-04-11T15:32:40.934Z,5160
2017-04-11T15:33:50.181Z,5388
2017-04-11T15:34:59.098Z,5344
2017-04-11T15:36:08.005Z,5196
2017-04-11T15:37:16.916Z,5732
2017-04-11T15:38:25.837Z,6192
2017-04-11T15:39:35.072Z,6372
2017-04-11T15:40:43.666Z,6988
2017-04-11T15:41:53.524Z,7344
2017-04-11T15:43:03.281Z,7300
2017-04-11T15:44:11.942Z,6800
2017-04-11T15:45:20.856Z,6104